createdAt,value
2023-04-08T00:01:33.314Z,99857.34
2023-04-08T00:04:00.256Z,99858.19
2023-04-08T00:06:27.260Z,99863.53
2023-04-08T00:08:53.680Z,99862.69
2023-04-08T00:11:20.382Z,99866.22
2023-04-08T00:13:47.059Z,99862.34
2023-04-08T00:16:13.896Z,99855.44
2023-04-08T00:18:41.220Z,99858.19
2023-04-08T00:21:08.041Z,99851.25
2023-04-08T00:23:34.414Z,99859.94
2023-04-08T00:26:01.008Z,99849.97
2023-04-08T00:28:27.417Z,99858.00
2023-04-08T00:30:53.844Z,99858.94
2023-04-08T00:33:20.275Z,99857.13
2023-04-08T00:35:47.098Z,99862.25
2023-04-08T00:38:13.469Z,99866.53
2023-04-08T00:40:40.073Z,99867.25
2023-04-08T00:43:06.521Z,99869.19
2023-04-08T00:45:33.918Z,99867.25
2023-04-08T00:48:02.528Z,99863.97
2023-04-08T00:50:29.084Z,99866.41
2023-04-08T00:52:55.564Z,99868.97
2023-04-08T00:55:22.308Z,99865.53
2023-04-08T00:57:49.054Z,99874.63
2023-04-08T01:00:16.531Z,99878.69
2023-04-08T01:02:47.254Z,99871.66
2023-04-08T01:05:44.280Z,99873.75
2023-04-08T01:08:12.460Z,99879.41
2023-04-08T01:10:42.777Z,99874.84
2023-04-08T01:13:12.017Z,99872.72
2023-04-08T01:15:41.209Z,99879.66
2023-04-08T01:18:12.685Z,99869.31
2023-04-08T01:20:40.773Z,99875.38
2023-04-08T01:23:20.824Z,99875.06
2023-04-08T01:25:50.487Z,99876.22
2023-04-08T01:28:19.508Z,99873.13
2023-04-08T01:30:47.764Z,99878.69
2023-04-08T01:33:16.986Z,99879.66
2023-04-08T01:35:45.303Z,99873.13
2023-04-08T01:38:18.470Z,99876.94
2023-04-08T01:40:46.370Z,99876.19
2023-04-08T01:43:16.045Z,99882.50
2023-04-08T01:45:45.604Z,99877.00
2023-04-08T01:48:14.206Z,99876.84
2023-04-08T01:50:45.293Z,99883.38
2023-04-08T01:53:12.850Z,99877.19
2023-04-08T01:55:41.753Z,99879.88
2023-04-08T01:58:11.575Z,99883.59
2023-04-08T02:00:40.816Z,99879.00
2023-04-08T02:03:12.305Z,99878.72
2023-04-08T02:05:39.894Z,99876.78
2023-04-08T02:08:06.750Z,99882.88
2023-04-08T02:10:33.132Z,99881.81
2023-04-08T02:12:59.693Z,99880.72
2023-04-08T02:15:28.929Z,99883.72
2023-04-08T02:17:59.868Z,99882.53
2023-04-08T02:20:32.253Z,99880.94
2023-04-08T02:23:14.575Z,99880.19
2023-04-08T02:25:44.367Z,99884.59
2023-04-08T02:28:12.292Z,99881.03
2023-04-08T02:30:43.250Z,99881.03
2023-04-08T02:33:11.969Z,99879.34
2023-04-08T02:35:40.926Z,99881.81
2023-04-08T02:38:07.496Z,99889.56
2023-04-08T02:40:35.851Z,99884.69
2023-04-08T02:43:03.003Z,99884.34
2023-04-08T02:45:40.800Z,99882.44
2023-04-08T02:48:07.721Z,99886.66
2023-04-08T02:50:34.649Z,99885.28
2023-04-08T02:53:01.702Z,99885.16
2023-04-08T02:55:28.045Z,99885.00
2023-04-08T02:57:55.087Z,99888.94
2023-04-08T03:00:21.907Z,99891.19
2023-04-08T03:02:48.741Z,99888.97
2023-04-08T03:05:17.171Z,99887.94
2023-04-08T03:07:43.688Z,99898.59
2023-04-08T03:10:10.484Z,99896.88
2023-04-08T03:12:36.865Z,99896.00
2023-04-08T03:15:03.977Z,99901.06
2023-04-08T03:17:33.609Z,99899.78
2023-04-08T03:20:01.651Z,99906.09
2023-04-08T03:22:28.447Z,99900.53
2023-04-08T03:24:54.904Z,99904.81
2023-04-08T03:27:21.692Z,99897.00
2023-04-08T03:29:48.508Z,99894.44
2023-04-08T03:32:15.707Z,99902.03
2023-04-08T03:34:42.819Z,99907.16
2023-04-08T03:37:09.162Z,99900.00
2023-04-08T03:39:35.577Z,99909.28
2023-04-08T03:42:03.073Z,99901.81
2023-04-08T03:44:29.842Z,99901.28
2023-04-08T03:46:56.234Z,99903.41
2023-04-08T03:49:23.025Z,99900.75
2023-04-08T03:51:50.026Z,99902.53
2023-04-08T03:54:16.454Z,99900.53
2023-04-08T03:56:42.817Z,99905.22
2023-04-08T03:59:09.602Z,99901.13
2023-04-08T04:01:36.532Z,99899.97
2023-04-08T04:04:03.481Z,99898.25
2023-04-08T04:06:30.063Z,99910.09
2023-04-08T04:08:56.422Z,99897.53
2023-04-08T04:11:23.841Z,99900.09
2023-04-08T04:13:50.282Z,99896.56
2023-04-08T04:16:16.814Z,99901.91
2023-04-08T04:18:43.378Z,99907.78
2023-04-08T04:21:10.204Z,99912.13
2023-04-08T04:23:36.856Z,99914.16
2023-04-08T04:26:08.661Z,99915.00
2023-04-08T04:28:35.605Z,99907.97
2023-04-08T04:31:02.118Z,99907.09
2023-04-08T04:33:29.061Z,99906.25
2023-04-08T04:35:55.938Z,99916.94
2023-04-08T04:38:22.382Z,99914.25
2023-04-08T04:40:48.980Z,99911.78
2023-04-08T04:43:16.410Z,99916.38
2023-04-08T04:45:43.190Z,99925.56
2023-04-08T04:48:09.561Z,99922.03
2023-04-08T04:50:36.043Z,99921.19
2023-04-08T04:53:02.478Z,99926.50
2023-04-08T04:55:28.848Z,99919.78
2023-04-08T04:57:55.833Z,99914.94
2023-04-08T05:00:22.163Z,99918.88
2023-04-08T05:02:48.689Z,99920.06
2023-04-08T05:05:15.326Z,99921.13
2023-04-08T05:07:41.747Z,99912.69
2023-04-08T05:10:08.804Z,99926.50
2023-04-08T05:12:35.549Z,99927.66
2023-04-08T05:15:02.463Z,99926.16
2023-04-08T05:17:28.939Z,99923.78
2023-04-08T05:19:55.882Z,99926.72
2023-04-08T05:22:22.262Z,99936.06
2023-04-08T05:24:49.265Z,99931.91
2023-04-08T05:27:15.933Z,99937.91
2023-04-08T05:29:42.769Z,99940.88
2023-04-08T05:32:09.255Z,99938.69
2023-04-08T05:34:35.702Z,99945.03
2023-04-08T05:37:02.131Z,99944.06
2023-04-08T05:39:28.933Z,99946.53
2023-04-08T05:41:55.412Z,99943.59
2023-04-08T05:44:22.173Z,99952.63
2023-04-08T05:46:48.700Z,99953.47
2023-04-08T05:49:17.613Z,99951.25
2023-04-08T05:51:44.103Z,99952.56
2023-04-08T05:54:11.057Z,99953.56
2023-04-08T05:56:37.436Z,99959.53
2023-04-08T05:59:04.168Z,99955.41
2023-04-08T06:01:30.545Z,99964.25
2023-04-08T06:03:57.472Z,99969.38
2023-04-08T06:06:25.492Z,99977.59
2023-04-08T06:08:52.369Z,99973.00
2023-04-08T06:11:18.981Z,99975.38
2023-04-08T06:13:45.846Z,99969.72
2023-04-08T06:16:19.581Z,99981.09
2023-04-08T06:18:47.306Z,99983.94
2023-04-08T06:21:14.369Z,99985.81
2023-04-08T06:23:41.138Z,99985.53
2023-04-08T06:26:07.862Z,99984.25
2023-04-08T06:28:34.226Z,99981.31
2023-04-08T06:31:01.361Z,99982.16
2023-04-08T06:33:28.335Z,99986.38
2023-04-08T06:36:08.033Z,99991.31
2023-04-08T06:38:35.656Z,99994.28
2023-04-08T06:41:11.458Z,99985.00
2023-04-08T06:43:38.011Z,99985.44
2023-04-08T06:46:04.925Z,99984.50
2023-04-08T06:48:31.381Z,99986.34
2023-04-08T06:50:59.317Z,99989.25
2023-04-08T06:53:26.756Z,99990.19
2023-04-08T06:55:53.436Z,99992.41
2023-04-08T06:58:19.829Z,99998.94
2023-04-08T07:00:47.442Z,100000.00
2023-04-08T07:03:14.019Z,100004.28
2023-04-08T07:05:42.292Z,99999.78
2023-04-08T07:08:09.130Z,100002.53
2023-04-08T07:10:36.245Z,100005.75
2023-04-08T07:13:03.130Z,100006.94
2023-04-08T07:15:29.519Z,100015.09
2023-04-08T07:17:59.774Z,100019.56
2023-04-08T07:20:26.488Z,100021.81
2023-04-08T07:22:52.928Z,100024.28
2023-04-08T07:25:19.484Z,100021.06
2023-04-08T07:27:46.118Z,100026.09
2023-04-08T07:30:12.717Z,100031.44
2023-04-08T07:32:39.289Z,100026.63
2023-04-08T07:35:06.686Z,100024.47
2023-04-08T07:37:33.104Z,100030.16
2023-04-08T07:39:59.808Z,100027.38
2023-04-08T07:42:26.685Z,100040.97
2023-04-08T07:44:53.152Z,100029.22
2023-04-08T07:47:19.534Z,100034.84
2023-04-08T07:49:47.004Z,100039.56
2023-04-08T07:52:13.609Z,100034.22
2023-04-08T07:54:39.950Z,100050.13
2023-04-08T07:57:06.772Z,100045.72
2023-04-08T07:59:33.498Z,100038.38
2023-04-08T08:01:59.899Z,100043.84
2023-04-08T08:04:26.703Z,100037.44
2023-04-08T08:06:53.618Z,100039.34
2023-04-08T08:09:21.114Z,100051.00
2023-04-08T08:11:47.489Z,100046.28
2023-04-08T08:14:14.482Z,100044.25
2023-04-08T08:16:41.967Z,100055.81
2023-04-08T08:19:08.786Z,100061.81
2023-04-08T08:21:39.322Z,100064.34
2023-04-08T08:24:06.372Z,100067.34
2023-04-08T08:26:36.862Z,100067.16
2023-04-08T08:29:04.128Z,100074.19
2023-04-08T08:31:30.948Z,100073.78
2023-04-08T08:33:57.420Z,100076.84
2023-04-08T08:36:24.409Z,100076.94
2023-04-08T08:38:53.465Z,100075.69
2023-04-08T08:41:21.074Z,100083.19
2023-04-08T08:43:48.651Z,100085.00
2023-04-08T08:46:17.416Z,100084.13
2023-04-08T08:48:44.592Z,100081.25
2023-04-08T08:51:12.369Z,100093.09
2023-04-08T08:53:39.506Z,100091.72
2023-04-08T08:58:39.242Z,100099.84
2023-04-08T09:01:34.925Z,100098.34
2023-04-08T09:04:12.380Z,100094.78
2023-04-08T09:06:39.321Z,100100.16
2023-04-08T09:09:10.686Z,100099.94
2023-04-08T09:11:44.801Z,100102.19
2023-04-08T09:14:25.850Z,100100.34
2023-04-08T09:16:53.246Z,100098.97
2023-04-08T09:19:20.151Z,100100.91
2023-04-08T09:22:04.261Z,100101.31
2023-04-08T09:24:31.899Z,100099.63
2023-04-08T09:26:58.569Z,100100.03
2023-04-08T09:29:30.516Z,100104.97
2023-04-08T09:32:01.343Z,100110.22
2023-04-08T09:34:29.825Z,100111.38
2023-04-08T09:36:56.531Z,100114.69
2023-04-08T09:39:23.288Z,100117.13
2023-04-08T09:41:52.316Z,100121.63
2023-04-08T09:44:21.360Z,100117.25
2023-04-08T09:46:54.049Z,100116.28
2023-04-08T09:49:27.713Z,100109.88
2023-04-08T09:52:24.241Z,100108.41
2023-04-08T09:55:04.408Z,100113.72
2023-04-08T09:57:58.494Z,100110.09
2023-04-08T10:00:31.312Z,100107.50
2023-04-08T10:03:27.148Z,100101.28
2023-04-08T10:05:54.359Z,100095.22
2023-04-08T10:08:21.362Z,100098.94
2023-04-08T10:10:48.099Z,100097.13
2023-04-08T10:13:14.785Z,100094.69
2023-04-08T10:15:43.454Z,100097.66
2023-04-08T10:18:09.768Z,100092.97
2023-04-08T10:20:36.127Z,100094.31
2023-04-08T10:23:04.118Z,100098.88
2023-04-08T10:25:44.735Z,100100.88
2023-04-08T10:28:11.236Z,100101.31
2023-04-08T10:30:50.798Z,100104.91
2023-04-08T10:33:40.784Z,100093.59
2023-04-08T10:36:08.417Z,100091.94
2023-04-08T10:38:35.255Z,100088.28
2023-04-08T10:41:02.406Z,100079.31
2023-04-08T10:43:33.782Z,100086.13
2023-04-08T10:46:00.912Z,100081.13
2023-04-08T10:48:30.816Z,100078.81
2023-04-08T10:51:04.708Z,100076.66
2023-04-08T10:53:36.148Z,100078.88
2023-04-08T10:56:15.110Z,100089.50
2023-04-08T10:58:52.809Z,100077.38
2023-04-08T11:01:19.890Z,100069.91
2023-04-08T11:03:47.020Z,100069.19
2023-04-08T11:06:13.689Z,100072.75
2023-04-08T11:08:40.390Z,100065.66
2023-04-08T11:11:11.350Z,100067.47
2023-04-08T11:13:42.951Z,100064.78
2023-04-08T11:16:18.525Z,100058.38
2023-04-08T11:18:46.212Z,100051.91
2023-04-08T11:21:12.831Z,100052.66
2023-04-08T11:23:39.666Z,100057.31
2023-04-08T11:26:06.481Z,100053.91
2023-04-08T11:28:33.831Z,100052.44
2023-04-08T11:31:00.435Z,100056.00
2023-04-08T11:33:30.020Z,100050.66
2023-04-08T11:35:56.853Z,100053.72
2023-04-08T11:38:24.330Z,100047.75
2023-04-08T11:40:59.181Z,100052.22
2023-04-08T11:43:26.516Z,100057.06
2023-04-08T11:45:53.106Z,100050.78
2023-04-08T11:48:20.139Z,100052.25
2023-04-08T11:50:46.621Z,100047.66
2023-04-08T11:53:19.969Z,100047.66
2023-04-08T11:55:47.185Z,100055.94
2023-04-08T11:58:13.561Z,100051.56
2023-04-08T12:00:40.256Z,100053.84
2023-04-08T12:03:07.876Z,100051.53
2023-04-08T12:05:34.607Z,100051.78
2023-04-08T12:08:01.006Z,100052.88
2023-04-08T12:10:27.740Z,100048.63
2023-04-08T12:12:54.127Z,100041.66
2023-04-08T12:15:20.858Z,100040.47
2023-04-08T12:17:47.655Z,100047.88
2023-04-08T12:20:14.042Z,100044.69
2023-04-08T12:22:41.140Z,100037.50
2023-04-08T12:25:07.908Z,100037.72
2023-04-08T12:27:34.413Z,100034.41
2023-04-08T12:30:01.590Z,100028.19
2023-04-08T12:32:28.728Z,100023.50
2023-04-08T12:34:55.944Z,100027.63
2023-04-08T12:37:22.385Z,100011.53
2023-04-08T12:39:58.506Z,100024.59
2023-04-08T12:42:25.333Z,100008.75
2023-04-08T12:44:52.176Z,100010.53
2023-04-08T12:47:19.080Z,100006.91
2023-04-08T12:49:49.856Z,100009.41
2023-04-08T12:52:17.404Z,100002.31
2023-04-08T12:54:44.448Z,99995.97
2023-04-08T12:57:11.116Z,99989.00
2023-04-08T12:59:39.759Z,100004.22
2023-04-08T13:02:06.842Z,99995.97
2023-04-08T13:04:33.652Z,99991.50
2023-04-08T13:07:00.895Z,100002.44
2023-04-08T13:09:27.599Z,100006.13
2023-04-08T13:11:53.939Z,100001.34
2023-04-08T13:14:20.390Z,99999.19
2023-04-08T13:16:47.170Z,99994.78
2023-04-08T13:19:14.044Z,99997.59
2023-04-08T13:21:40.956Z,99998.13
2023-04-08T13:24:07.305Z,99998.19
2023-04-08T13:26:33.984Z,99995.97
2023-04-08T13:29:00.777Z,99994.81
2023-04-08T13:31:27.618Z,99990.91
2023-04-08T13:33:56.978Z,99992.84
2023-04-08T13:36:24.571Z,99996.22
2023-04-08T13:38:52.306Z,100000.00
2023-04-08T13:41:20.992Z,99985.13
2023-04-08T13:43:47.717Z,99992.13
2023-04-08T13:46:14.372Z,99985.00
2023-04-08T13:48:41.184Z,99997.13
2023-04-08T13:51:07.608Z,99986.78
2023-04-08T13:53:34.198Z,99984.25
2023-04-08T13:56:00.557Z,99980.53
2023-04-08T13:58:27.490Z,99975.31
2023-04-08T14:00:54.000Z,99980.72
2023-04-08T14:03:20.976Z,99975.88
2023-04-08T14:05:47.637Z,99979.53
2023-04-08T14:08:14.130Z,99978.56
2023-04-08T14:10:41.917Z,99965.78
2023-04-08T14:13:08.887Z,99973.84
2023-04-08T14:15:35.304Z,99976.28
2023-04-08T14:18:01.859Z,99966.34
2023-04-08T14:20:28.557Z,99961.56
2023-04-08T14:22:56.665Z,99959.72
2023-04-08T14:25:23.598Z,99967.66
2023-04-08T14:27:57.985Z,99960.16
2023-04-08T14:30:25.172Z,99968.78
2023-04-08T14:32:51.661Z,99972.47
2023-04-08T14:35:18.087Z,99977.44
2023-04-08T14:37:44.950Z,99966.53
2023-04-08T14:40:11.732Z,99968.94
2023-04-08T14:42:38.218Z,99973.91
2023-04-08T14:45:05.213Z,99971.03
2023-04-08T14:47:31.937Z,99966.06
2023-04-08T14:49:58.309Z,99967.06
2023-04-08T14:52:24.906Z,99974.34
2023-04-08T14:54:52.382Z,99975.75
2023-04-08T14:57:19.276Z,99976.03
2023-04-08T14:59:54.968Z,99968.53
2023-04-08T15:02:21.474Z,99970.50
2023-04-08T15:04:47.872Z,99966.25
2023-04-08T15:07:14.838Z,99960.56
2023-04-08T15:10:04.570Z,99964.53
2023-04-08T15:12:33.280Z,99966.53
2023-04-08T15:15:00.081Z,99965.50
2023-04-08T15:17:26.546Z,99967.66
2023-04-08T15:19:52.971Z,99964.56
2023-04-08T15:22:19.437Z,99964.69
2023-04-08T15:24:47.957Z,99965.41
2023-04-08T15:27:16.034Z,99972.06
2023-04-08T15:29:43.036Z,99966.25
2023-04-08T15:32:09.408Z,99969.91
2023-04-08T15:34:36.053Z,99961.06
2023-04-08T15:37:02.742Z,99962.16
2023-04-08T15:39:29.082Z,99960.22
2023-04-08T15:41:55.827Z,99960.94
2023-04-08T15:44:22.447Z,99967.50
2023-04-08T15:46:49.013Z,99974.47
2023-04-08T15:49:15.518Z,99961.00
2023-04-08T15:51:45.167Z,99960.88
2023-04-08T15:54:11.770Z,99956.59
2023-04-08T15:56:38.218Z,99955.19
2023-04-08T15:59:04.581Z,99956.47
2023-04-08T16:01:31.404Z,99960.25
2023-04-08T16:03:58.295Z,99952.59
2023-04-08T16:06:24.833Z,99951.56
2023-04-08T16:08:51.764Z,99955.19
2023-04-08T16:11:18.502Z,99961.59
2023-04-08T16:13:44.852Z,99964.50
2023-04-08T16:16:12.639Z,99960.84
2023-04-08T16:18:41.613Z,99966.28
2023-04-08T16:21:08.065Z,99967.09
2023-04-08T16:23:37.686Z,99970.88
2023-04-08T16:26:10.573Z,99965.34
2023-04-08T16:28:38.826Z,99962.72
2023-04-08T16:31:06.074Z,99961.19
2023-04-08T16:33:33.268Z,99983.72
2023-04-08T16:36:01.282Z,99978.38
2023-04-08T16:38:27.816Z,99978.28
2023-04-08T16:40:58.298Z,99975.19
2023-04-08T16:43:25.997Z,99981.41
2023-04-08T16:45:53.059Z,99985.25
2023-04-08T16:48:19.480Z,99983.78
2023-04-08T16:50:45.974Z,99985.19
2023-04-08T16:53:12.325Z,99991.75
2023-04-08T16:55:38.685Z,99984.66
2023-04-08T16:58:05.593Z,99990.63
2023-04-08T17:00:31.966Z,99992.03
2023-04-08T17:02:59.129Z,99986.22
2023-04-08T17:05:26.469Z,99991.00
2023-04-08T17:07:53.320Z,99994.66
2023-04-08T17:10:22.124Z,100005.25
2023-04-08T17:12:48.918Z,99994.09
2023-04-08T17:15:15.309Z,99999.41
2023-04-08T17:17:41.693Z,99998.56
2023-04-08T17:20:08.919Z,100001.91
2023-04-08T17:22:35.779Z,100001.91
2023-04-08T17:25:02.388Z,100005.47
2023-04-08T17:27:28.795Z,100009.28
2023-04-08T17:29:57.801Z,100009.53
2023-04-08T17:32:24.955Z,100013.19
2023-04-08T17:34:52.310Z,100012.81
2023-04-08T17:37:18.774Z,100019.84
2023-04-08T17:39:45.295Z,100022.56
2023-04-08T17:42:12.026Z,100019.25
2023-04-08T17:44:42.266Z,100027.03
2023-04-08T17:47:08.768Z,100026.72
2023-04-08T17:49:35.733Z,100010.19
2023-04-08T17:52:02.127Z,100018.63
2023-04-08T17:54:28.545Z,100014.06
2023-04-08T17:56:55.319Z,100023.75
2023-04-08T17:59:21.776Z,100025.84
2023-04-08T18:01:48.318Z,100037.09
2023-04-08T18:04:15.078Z,100034.19
2023-04-08T18:06:41.675Z,100034.19
2023-04-08T18:09:08.385Z,100029.50
2023-04-08T18:11:34.827Z,100033.91
2023-04-08T18:14:01.779Z,100037.56
2023-04-08T18:16:28.329Z,100036.97
2023-04-08T18:18:55.145Z,100042.59
2023-04-08T18:21:22.364Z,100043.44
2023-04-08T18:23:50.065Z,100049.31
2023-04-08T18:26:17.211Z,100050.16
2023-04-08T18:28:43.596Z,100054.69
2023-04-08T18:31:10.290Z,100063.25
2023-04-08T18:33:38.757Z,100059.13
2023-04-08T18:36:09.651Z,100058.00
2023-04-08T18:38:36.907Z,100067.75
2023-04-08T18:41:06.806Z,100065.78
2023-04-08T18:43:33.929Z,100072.34
2023-04-08T18:46:00.520Z,100077.69
2023-04-08T18:48:27.495Z,100085.81
2023-04-08T18:50:53.875Z,100089.69
2023-04-08T18:53:21.220Z,100080.91
2023-04-08T18:55:47.686Z,100089.50
2023-04-08T18:58:14.097Z,100095.22
2023-04-08T19:00:41.851Z,100100.59
2023-04-08T19:03:10.064Z,100093.28
2023-04-08T19:05:37.505Z,100092.06
2023-04-08T19:08:04.254Z,100093.78
2023-04-08T19:10:32.187Z,100099.16
2023-04-08T19:12:59.506Z,100095.50
2023-04-08T19:15:26.913Z,100092.69
2023-04-08T19:17:54.108Z,100104.63
2023-04-08T19:20:21.274Z,100110.19
2023-04-08T19:22:48.284Z,100109.34
2023-04-08T19:25:15.181Z,100114.81
2023-04-08T19:27:41.930Z,100112.75
2023-04-08T19:30:08.780Z,100118.13
2023-04-08T19:32:35.446Z,100119.34
2023-04-08T19:35:02.112Z,100122.00
2023-04-08T19:37:28.802Z,100120.47
2023-04-08T19:39:55.617Z,100114.59
2023-04-08T19:42:22.319Z,100122.56
2023-04-08T19:44:49.573Z,100120.78
2023-04-08T19:47:17.470Z,100122.81
2023-04-08T19:49:44.338Z,100131.00
2023-04-08T19:52:10.905Z,100125.34
2023-04-08T19:54:37.682Z,100124.28
2023-04-08T19:57:07.995Z,100127.19
2023-04-08T19:59:34.965Z,100133.38
2023-04-08T20:02:03.300Z,100130.63
2023-04-08T20:04:30.108Z,100140.44
2023-04-08T20:06:56.903Z,100141.28
2023-04-08T20:09:23.338Z,100137.75
2023-04-08T20:11:50.133Z,100140.63
2023-04-08T20:14:17.089Z,100134.72
2023-04-08T20:16:43.951Z,100141.44
2023-04-08T20:19:10.503Z,100145.69
2023-04-08T20:21:37.665Z,100142.25
2023-04-08T20:24:04.139Z,100142.44
2023-04-08T20:26:30.526Z,100149.34
2023-04-08T20:28:58.996Z,100154.22
2023-04-08T20:31:26.570Z,100160.94
2023-04-08T20:33:53.658Z,100158.63
2023-04-08T20:36:20.619Z,100165.22
2023-04-08T20:38:46.965Z,100159.81
2023-04-08T20:41:18.457Z,100162.22
2023-04-08T20:43:44.835Z,100166.91
2023-04-08T20:46:11.555Z,100168.59
2023-04-08T20:48:37.951Z,100169.56
2023-04-08T20:51:04.836Z,100170.31
2023-04-08T20:53:31.355Z,100173.75
2023-04-08T20:55:57.858Z,100177.53
2023-04-08T20:58:24.239Z,100173.25
2023-04-08T21:00:50.605Z,100169.16
2023-04-08T21:03:17.439Z,100162.09
2023-04-08T21:05:43.978Z,100167.72
2023-04-08T21:08:10.518Z,100168.94
2023-04-08T21:10:36.967Z,100164.94
2023-04-08T21:13:03.780Z,100168.56
2023-04-08T21:15:30.215Z,100175.81
2023-04-08T21:17:56.862Z,100174.84
2023-04-08T21:20:23.684Z,100173.31
2023-04-08T21:22:50.261Z,100173.91
2023-04-08T21:25:20.199Z,100175.59
2023-04-08T21:27:46.656Z,100170.16
2023-04-08T21:30:13.546Z,100171.00
2023-04-08T21:32:40.225Z,100168.63
2023-04-08T21:35:06.900Z,100171.78
2023-04-08T21:37:34.487Z,100177.91
2023-04-08T21:40:01.138Z,100172.56
2023-04-08T21:42:28.164Z,100176.53
2023-04-08T21:44:54.684Z,100171.88
2023-04-08T21:47:21.170Z,100175.75
2023-04-08T21:49:48.830Z,100184.81
2023-04-08T21:52:15.954Z,100181.09
2023-04-08T21:54:42.450Z,100196.13
2023-04-08T21:57:08.981Z,100189.34
2023-04-08T21:59:35.597Z,100185.84
2023-04-08T22:02:02.202Z,100186.69
2023-04-08T22:04:29.212Z,100196.41
2023-04-08T22:06:56.396Z,100192.78
2023-04-08T22:09:22.814Z,100196.31
2023-04-08T22:11:49.281Z,100192.88
2023-04-08T22:14:17.279Z,100188.59
2023-04-08T22:16:45.197Z,100196.47
2023-04-08T22:19:12.123Z,100196.31
2023-04-08T22:21:38.702Z,100199.91
2023-04-08T22:24:05.286Z,100200.13
2023-04-08T22:26:32.170Z,100208.38
2023-04-08T22:28:58.544Z,100199.97
2023-04-08T22:31:25.699Z,100193.03
2023-04-08T22:33:52.154Z,100196.13
2023-04-08T22:36:18.822Z,100191.06
2023-04-08T22:38:46.236Z,100192.97
2023-04-08T22:41:19.901Z,100190.59
2023-04-08T22:43:47.043Z,100195.91
2023-04-08T22:48:41.818Z,100201.41
2023-04-08T22:51:09.138Z,100196.34
2023-04-08T22:53:36.792Z,100193.09
2023-04-08T22:56:04.320Z,100198.84
2023-04-08T22:58:30.925Z,100191.13
2023-04-08T23:00:58.200Z,100205.38
2023-04-08T23:03:24.996Z,100201.19
2023-04-08T23:05:51.848Z,100204.84
2023-04-08T23:08:18.214Z,100200.41
2023-04-08T23:10:44.648Z,100198.50
2023-04-08T23:13:11.193Z,100198.50
2023-04-08T23:15:37.568Z,100193.03
2023-04-08T23:18:04.410Z,100193.97
2023-04-08T23:20:30.804Z,100191.91
2023-04-08T23:22:57.637Z,100200.56
2023-04-08T23:25:24.073Z,100183.50
2023-04-08T23:27:50.663Z,100193.84
2023-04-08T23:30:17.051Z,100195.41
2023-04-08T23:32:43.820Z,100193.50
2023-04-08T23:35:10.253Z,100193.34
2023-04-08T23:37:37.118Z,100190.47
2023-04-08T23:40:03.772Z,100192.13
2023-04-08T23:42:30.546Z,100185.66
2023-04-08T23:44:56.925Z,100190.72
2023-04-08T23:47:23.778Z,100193.88
2023-04-08T23:49:50.732Z,100190.16
2023-04-08T23:52:17.391Z,100198.94
2023-04-08T23:54:43.752Z,100205.78
2023-04-08T23:57:10.120Z,100199.22
2023-04-08T23:59:36.911Z,100195.38
